Grieskirchen, Austria
Current Conditions -  °F | °C
As of 11:50 AM on Sunday 25 Jan 2015 (Local Time) from LOWL Reporting Station
Broken Clouds Broken Clouds  
Wind Chill: 24°   Ceiling: 3200
Heat Index: 34°   Visibility: 6mi
Dew Point: 30°   Wind: 14mph
Humidity: 87%   Direction: 270°W
Pressure: 30.24"   Gusts: NA
Location:  48.23°N, 13.83°E
Report Text: LOWL 250950Z 27012KT 9000 FEW011 BKN032 BKN090 01/M01 Q1024 R08/1///95 TEMPO 4000 -SHSN BKN013
Loading
Personal Weather Stations






























Interactive Weather Map New forecast layout! Learn more

10-Day Weather Forecast

Advertisements
Track Severe Weather on mobile